Aérodrome :
LOGIN :

S'inscrire | Disclaimer

   EN    FR    IT 

 










Légende :    VFR   VFR Marginal   IFR   IFR Intensif   IFR Très Intensif
Visi : 
Plafond : 
>= 8 km
>= 3000ft
5 à 8 km
1000 à 3000 ft
1500m à 5 km
500 à 1000 ft
800 à 1500m
200 à 500 ft
< 800m
< 200 ft
Symboles :   Orages  Brouillard  Fortes neiges  Fortes précipitations  Vent > 20 kt
SIGMETs :   Divers  Orages  Givrage  Turbulence  Onde Orograph.  Cendres Volcan.






- Altitude de l'aérodrome : 68 ft


ESCM - Uppsala

DERNIER METAR :
  • 290620Z 03004KT 5000 BR OVC002 12/12 Q1016

METARs EXPIRÉS :
  • 290550Z 03005KT 0900 R03/P2000N R21/P2000N FG VV002 12/12 Q1016
  • 290520Z AUTO 04005KT 1000 0800// R03/1500U R21/1700U BR VV003 12/12 Q1016
  • 290450Z AUTO 04004KT 1400 1000// R03/P2000N R21/1900N BR VV002 12/12 Q1016
  • 290420Z AUTO 04004KT 2600 BR VV003 12/12 Q1016
  • 290350Z AUTO 04004KT 5000 VV004 12/12 Q1016

TAF TAF ESCM
Valide du 29 à 06h jusqu'au 29 à 14h UTC


290600Z 2906/2914 03005KT 5000 -DZ BKN006
TEMPO 2906/2912 0600 FG VV002
TEMPO 2912/2914 2000 DZ OVC003 RMK MIL



MET'MAP, la Météo Aéronautique d'un coup d'oeil ! - Copyright ORBIFLY Décembre 2007 - Disclaimer

ORBIFLY MET'MAP TEAM :

Programmation & Développement : Alexandra Zaïnal
Sur une idée originale de : Baudouin d'Aumeries
Assistance à la programmation : Marc-Olivier Méhu
Soutien technique & logistique : Manuel Goepfert

Contact : metmap@orbifly.com




SOURCES & CREDITS :

   NOAA